sensor_id;sensor_type;location;lat;lon;timestamp;temperature;humidity
7317;DHT22;3699;51.462;6.696;2023-05-02T00:01:01;11.60;99.90
7317;DHT22;3699;51.462;6.696;2023-05-02T00:03:29;11.90;99.90
7317;DHT22;3699;51.462;6.696;2023-05-02T00:08:25;12.20;99.90
7317;DHT22;3699;51.462;6.696;2023-05-02T00:10:51;11.80;99.90
7317;DHT22;3699;51.462;6.696;2023-05-02T00:15:45;11.70;99.90
7317;DHT22;3699;51.462;6.696;2023-05-02T00:18:12;11.80;99.90
7317;DHT22;3699;51.462;6.696;2023-05-02T00:20:39;12.00;99.90
7317;DHT22;3699;51.462;6.696;2023-05-02T00:23:06;11.90;99.90
7317;DHT22;3699;51.462;6.696;2023-05-02T00:25:34;11.80;99.90
7317;DHT22;3699;51.462;6.696;2023-05-02T00:30:28;11.60;99.90
7317;DHT22;3699;51.462;6.696;2023-05-02T00:35:22;11.50;99.90
7317;DHT22;3699;51.462;6.696;2023-05-02T00:37:48;11.70;99.90
7317;DHT22;3699;51.462;6.696;2023-05-02T00:40:15;11.50;99.90
7317;DHT22;3699;51.462;6.696;2023-05-02T00:42:43;11.60;99.90
7317;DHT22;3699;51.462;6.696;2023-05-02T00:45:10;11.30;99.90
7317;DHT22;3699;51.462;6.696;2023-05-02T00:47:37;11.40;99.90
7317;DHT22;3699;51.462;6.696;2023-05-02T00:50:05;11.30;99.90
7317;DHT22;3699;51.462;6.696;2023-05-02T00:52:32;11.40;99.90
7317;DHT22;3699;51.462;6.696;2023-05-02T00:55:00;11.30;99.90
7317;DHT22;3699;51.462;6.696;2023-05-02T00:57:27;11.60;99.90
7317;DHT22;3699;51.462;6.696;2023-05-02T00:59:56;11.30;99.90
7317;DHT22;3699;51.462;6.696;2023-05-02T01:02:30;11.50;99.90
7317;DHT22;3699;51.462;6.696;2023-05-02T01:05:01;11.40;99.90
7317;DHT22;3699;51.462;6.696;2023-05-02T01:07:45;11.40;99.90
7317;DHT22;3699;51.462;6.696;2023-05-02T01:10:20;11.40;99.90
7317;DHT22;3699;51.462;6.696;2023-05-02T01:12:57;11.60;99.90
7317;DHT22;3699;51.462;6.696;2023-05-02T01:15:27;11.60;99.90
7317;DHT22;3699;51.462;6.696;2023-05-02T01:17:54;11.60;99.90
7317;DHT22;3699;51.462;6.696;2023-05-02T01:20:25;11.70;99.90
7317;DHT22;3699;51.462;6.696;2023-05-02T01:22:54;11.70;99.90
7317;DHT22;3699;51.462;6.696;2023-05-02T01:25:30;11.80;99.90
7317;DHT22;3699;51.462;6.696;2023-05-02T01:28:13;11.90;99.90
7317;DHT22;3699;51.462;6.696;2023-05-02T01:30:46;11.90;99.90
7317;DHT22;3699;51.462;6.696;2023-05-02T01:33:16;11.80;99.90
7317;DHT22;3699;51.462;6.696;2023-05-02T01:35:45;11.90;99.90
7317;DHT22;3699;51.462;6.696;2023-05-02T01:38:16;11.90;99.90
7317;DHT22;3699;51.462;6.696;2023-05-02T01:40:44;11.90;99.90
7317;DHT22;3699;51.462;6.696;2023-05-02T01:43:13;11.80;99.90
7317;DHT22;3699;51.462;6.696;2023-05-02T01:45:42;12.00;99.90
7317;DHT22;3699;51.462;6.696;2023-05-02T01:48:11;12.40;99.90
7317;DHT22;3699;51.462;6.696;2023-05-02T01:50:40;12.00;99.90
7317;DHT22;3699;51.462;6.696;2023-05-02T01:53:10;12.10;99.90
7317;DHT22;3699;51.462;6.696;2023-05-02T01:55:42;12.50;99.90
7317;DHT22;3699;51.462;6.696;2023-05-02T02:00:37;12.00;99.90
7317;DHT22;3699;51.462;6.696;2023-05-02T02:03:05;12.10;99.90
7317;DHT22;3699;51.462;6.696;2023-05-02T02:05:35;12.20;99.90
7317;DHT22;3699;51.462;6.696;2023-05-02T02:08:03;12.30;99.90
7317;DHT22;3699;51.462;6.696;2023-05-02T02:10:35;12.10;99.90
7317;DHT22;3699;51.462;6.696;2023-05-02T02:13:06;12.20;99.90
7317;DHT22;3699;51.462;6.696;2023-05-02T02:15:39;12.10;99.90
7317;DHT22;3699;51.462;6.696;2023-05-02T02:18:09;12.30;99.90
7317;DHT22;3699;51.462;6.696;2023-05-02T02:20:41;12.20;99.90
7317;DHT22;3699;51.462;6.696;2023-05-02T02:23:10;11.70;99.90
7317;DHT22;3699;51.462;6.696;2023-05-02T02:25:37;11.90;99.90
7317;DHT22;3699;51.462;6.696;2023-05-02T02:30:31;12.40;99.90
7317;DHT22;3699;51.462;6.696;2023-05-02T02:35:32;12.20;99.90
7317;DHT22;3699;51.462;6.696;2023-05-02T02:38:13;12.10;99.90
7317;DHT22;3699;51.462;6.696;2023-05-02T02:40:48;12.20;99.90
7317;DHT22;3699;51.462;6.696;2023-05-02T02:43:22;12.30;99.90
7317;DHT22;3699;51.462;6.696;2023-05-02T02:45:56;12.10;99.90
7317;DHT22;3699;51.462;6.696;2023-05-02T02:48:32;12.20;99.90
7317;DHT22;3699;51.462;6.696;2023-05-02T02:51:07;12.30;99.90
7317;DHT22;3699;51.462;6.696;2023-05-02T02:53:46;15.30;99.90
7317;DHT22;3699;51.462;6.696;2023-05-02T02:56:15;12.50;99.90
7317;DHT22;3699;51.462;6.696;2023-05-02T02:58:50;12.20;99.90
7317;DHT22;3699;51.462;6.696;2023-05-02T03:01:21;12.20;99.90
7317;DHT22;3699;51.462;6.696;2023-05-02T03:03:50;12.10;99.90
7317;DHT22;3699;51.462;6.696;2023-05-02T03:06:17;12.10;99.90
7317;DHT22;3699;51.462;6.696;2023-05-02T03:08:46;12.30;99.90
7317;DHT22;3699;51.462;6.696;2023-05-02T03:11:12;12.30;99.90
7317;DHT22;3699;51.462;6.696;2023-05-02T03:13:39;12.20;99.90
7317;DHT22;3699;51.462;6.696;2023-05-02T03:16:31;12.20;99.90
7317;DHT22;3699;51.462;6.696;2023-05-02T03:18:59;12.20;99.90
7317;DHT22;3699;51.462;6.696;2023-05-02T03:21:26;12.70;99.90
7317;DHT22;3699;51.462;6.696;2023-05-02T03:23:54;12.20;99.90
7317;DHT22;3699;51.462;6.696;2023-05-02T03:26:20;12.00;99.90
7317;DHT22;3699;51.462;6.696;2023-05-02T03:31:15;12.20;99.90
7317;DHT22;3699;51.462;6.696;2023-05-02T03:33:42;12.10;99.90
7317;DHT22;3699;51.462;6.696;2023-05-02T03:41:05;12.40;99.90
7317;DHT22;3699;51.462;6.696;2023-05-02T03:43:31;12.20;99.90
7317;DHT22;3699;51.462;6.696;2023-05-02T03:46:03;12.10;99.90
7317;DHT22;3699;51.462;6.696;2023-05-02T03:51:00;11.80;99.90
7317;DHT22;3699;51.462;6.696;2023-05-02T03:53:27;12.30;99.90
7317;DHT22;3699;51.462;6.696;2023-05-02T03:58:22;12.40;99.90
7317;DHT22;3699;51.462;6.696;2023-05-02T04:03:17;12.30;99.90
7317;DHT22;3699;51.462;6.696;2023-05-02T04:05:44;12.30;99.90
7317;DHT22;3699;51.462;6.696;2023-05-02T04:08:11;12.20;99.90
7317;DHT22;3699;51.462;6.696;2023-05-02T04:13:05;12.60;99.90
7317;DHT22;3699;51.462;6.696;2023-05-02T04:15:33;12.20;99.90
7317;DHT22;3699;51.462;6.696;2023-05-02T04:18:00;12.20;99.90
7317;DHT22;3699;51.462;6.696;2023-05-02T04:20:27;12.30;99.90
7317;DHT22;3699;51.462;6.696;2023-05-02T04:22:54;12.40;99.90
7317;DHT22;3699;51.462;6.696;2023-05-02T04:25:21;12.10;99.90
7317;DHT22;3699;51.462;6.696;2023-05-02T04:30:15;12.20;99.90
7317;DHT22;3699;51.462;6.696;2023-05-02T04:32:43;12.10;99.90
7317;DHT22;3699;51.462;6.696;2023-05-02T04:37:37;12.00;99.90
7317;DHT22;3699;51.462;6.696;2023-05-02T04:40:04;12.10;99.90
7317;DHT22;3699;51.462;6.696;2023-05-02T04:42:32;12.20;99.90
7317;DHT22;3699;51.462;6.696;2023-05-02T04:44:59;12.60;99.90
7317;DHT22;3699;51.462;6.696;2023-05-02T04:49:55;12.30;99.90
7317;DHT22;3699;51.462;6.696;2023-05-02T04:52:21;12.30;99.90
7317;DHT22;3699;51.462;6.696;2023-05-02T04:57:16;12.30;99.90
7317;DHT22;3699;51.462;6.696;2023-05-02T04:59:43;12.00;99.90
7317;DHT22;3699;51.462;6.696;2023-05-02T05:02:09;12.20;99.90
7317;DHT22;3699;51.462;6.696;2023-05-02T05:07:05;12.30;99.90
7317;DHT22;3699;51.462;6.696;2023-05-02T05:14:27;11.70;99.90
7317;DHT22;3699;51.462;6.696;2023-05-02T05:16:55;11.70;99.90
7317;DHT22;3699;51.462;6.696;2023-05-02T05:19:22;11.80;99.90
7317;DHT22;3699;51.462;6.696;2023-05-02T05:21:49;11.60;99.90
7317;DHT22;3699;51.462;6.696;2023-05-02T05:24:17;11.70;99.90
7317;DHT22;3699;51.462;6.696;2023-05-02T05:26:44;11.90;99.90
7317;DHT22;3699;51.462;6.696;2023-05-02T05:29:11;11.90;99.90
7317;DHT22;3699;51.462;6.696;2023-05-02T05:31:37;11.60;99.90
7317;DHT22;3699;51.462;6.696;2023-05-02T05:34:04;11.60;99.90
7317;DHT22;3699;51.462;6.696;2023-05-02T05:36:31;11.70;99.90
7317;DHT22;3699;51.462;6.696;2023-05-02T05:38:58;11.90;99.90
7317;DHT22;3699;51.462;6.696;2023-05-02T05:41:27;11.70;99.90
7317;DHT22;3699;51.462;6.696;2023-05-02T05:43:53;11.60;99.90
7317;DHT22;3699;51.462;6.696;2023-05-02T05:46:20;11.60;99.90
7317;DHT22;3699;51.462;6.696;2023-05-02T05:48:47;11.80;99.90
7317;DHT22;3699;51.462;6.696;2023-05-02T05:56:08;12.30;99.90
7317;DHT22;3699;51.462;6.696;2023-05-02T05:58:37;11.80;99.90
7317;DHT22;3699;51.462;6.696;2023-05-02T06:01:04;11.80;99.90
7317;DHT22;3699;51.462;6.696;2023-05-02T06:03:31;12.10;99.90
7317;DHT22;3699;51.462;6.696;2023-05-02T06:05:57;11.90;99.90
7317;DHT22;3699;51.462;6.696;2023-05-02T06:08:24;12.00;99.90
7317;DHT22;3699;51.462;6.696;2023-05-02T06:15:46;12.10;99.90
7317;DHT22;3699;51.462;6.696;2023-05-02T06:18:13;12.20;99.90
7317;DHT22;3699;51.462;6.696;2023-05-02T06:23:07;12.20;99.90
7317;DHT22;3699;51.462;6.696;2023-05-02T06:25:36;12.20;99.90
7317;DHT22;3699;51.462;6.696;2023-05-02T06:32:59;12.60;99.90
7317;DHT22;3699;51.462;6.696;2023-05-02T06:35:26;12.90;99.90
7317;DHT22;3699;51.462;6.696;2023-05-02T06:40:20;12.70;99.90
7317;DHT22;3699;51.462;6.696;2023-05-02T06:42:47;12.60;99.90
7317;DHT22;3699;51.462;6.696;2023-05-02T06:47:40;12.80;99.90
7317;DHT22;3699;51.462;6.696;2023-05-02T06:50:09;12.50;99.90
7317;DHT22;3699;51.462;6.696;2023-05-02T06:55:04;12.40;99.90
7317;DHT22;3699;51.462;6.696;2023-05-02T06:57:31;12.20;99.90
7317;DHT22;3699;51.462;6.696;2023-05-02T07:02:25;11.70;99.90
7317;DHT22;3699;51.462;6.696;2023-05-02T07:04:52;12.00;99.90
7317;DHT22;3699;51.462;6.696;2023-05-02T07:07:20;11.60;99.90
7317;DHT22;3699;51.462;6.696;2023-05-02T07:09:46;11.60;99.90
7317;DHT22;3699;51.462;6.696;2023-05-02T07:12:13;11.60;99.90
7317;DHT22;3699;51.462;6.696;2023-05-02T07:14:40;12.10;99.90
7317;DHT22;3699;51.462;6.696;2023-05-02T07:22:02;12.00;99.90
7317;DHT22;3699;51.462;6.696;2023-05-02T07:24:30;11.40;99.90
7317;DHT22;3699;51.462;6.696;2023-05-02T07:26:56;12.00;99.90
7317;DHT22;3699;51.462;6.696;2023-05-02T07:29:23;12.20;99.90
7317;DHT22;3699;51.462;6.696;2023-05-02T07:31:50;11.90;99.90
7317;DHT22;3699;51.462;6.696;2023-05-02T07:34:17;11.40;99.90
7317;DHT22;3699;51.462;6.696;2023-05-02T07:39:10;12.20;99.90
7317;DHT22;3699;51.462;6.696;2023-05-02T07:41:38;11.70;99.90
7317;DHT22;3699;51.462;6.696;2023-05-02T07:46:32;12.50;99.90
7317;DHT22;3699;51.462;6.696;2023-05-02T07:48:59;12.30;99.90
7317;DHT22;3699;51.462;6.696;2023-05-02T07:51:26;12.30;99.90
7317;DHT22;3699;51.462;6.696;2023-05-02T07:53:52;12.30;99.90
7317;DHT22;3699;51.462;6.696;2023-05-02T07:56:22;12.30;99.90
7317;DHT22;3699;51.462;6.696;2023-05-02T07:58:51;12.50;99.90
7317;DHT22;3699;51.462;6.696;2023-05-02T08:01:18;12.50;99.90
7317;DHT22;3699;51.462;6.696;2023-05-02T08:03:44;12.50;99.90
7317;DHT22;3699;51.462;6.696;2023-05-02T08:06:12;12.60;99.90
7317;DHT22;3699;51.462;6.696;2023-05-02T08:11:06;12.90;99.90
7317;DHT22;3699;51.462;6.696;2023-05-02T08:16:01;12.90;99.90
7317;DHT22;3699;51.462;6.696;2023-05-02T08:18:28;12.90;99.90
7317;DHT22;3699;51.462;6.696;2023-05-02T08:20:55;12.50;99.90
7317;DHT22;3699;51.462;6.696;2023-05-02T08:23:22;12.60;99.90
7317;DHT22;3699;51.462;6.696;2023-05-02T08:30:44;12.60;99.90
7317;DHT22;3699;51.462;6.696;2023-05-02T08:33:12;12.40;99.90
7317;DHT22;3699;51.462;6.696;2023-05-02T08:38:06;12.40;99.90
7317;DHT22;3699;51.462;6.696;2023-05-02T08:40:35;12.50;99.90
7317;DHT22;3699;51.462;6.696;2023-05-02T08:43:02;12.30;99.90
7317;DHT22;3699;51.462;6.696;2023-05-02T08:45:33;12.30;99.90
7317;DHT22;3699;51.462;6.696;2023-05-02T08:48:05;12.30;99.90
7317;DHT22;3699;51.462;6.696;2023-05-02T08:50:35;12.50;99.90
7317;DHT22;3699;51.462;6.696;2023-05-02T08:53:03;12.70;99.90
7317;DHT22;3699;51.462;6.696;2023-05-02T08:55:31;13.10;99.90
7317;DHT22;3699;51.462;6.696;2023-05-02T08:57:58;13.60;99.90
7317;DHT22;3699;51.462;6.696;2023-05-02T09:00:26;13.40;99.90
7317;DHT22;3699;51.462;6.696;2023-05-02T09:03:01;14.00;99.90
7317;DHT22;3699;51.462;6.696;2023-05-02T09:05:37;15.00;99.90
7317;DHT22;3699;51.462;6.696;2023-05-02T09:08:05;15.20;99.90
7317;DHT22;3699;51.462;6.696;2023-05-02T09:10:34;16.10;99.90
7317;DHT22;3699;51.462;6.696;2023-05-02T09:13:29;16.00;95.20
7317;DHT22;3699;51.462;6.696;2023-05-02T09:15:57;15.70;97.10
7317;DHT22;3699;51.462;6.696;2023-05-02T09:18:27;15.50;98.50
7317;DHT22;3699;51.462;6.696;2023-05-02T09:20:57;15.40;99.90
7317;DHT22;3699;51.462;6.696;2023-05-02T09:23:34;15.40;98.80
7317;DHT22;3699;51.462;6.696;2023-05-02T09:26:10;15.40;94.10
7317;DHT22;3699;51.462;6.696;2023-05-02T09:28:38;15.40;99.90
7317;DHT22;3699;51.462;6.696;2023-05-02T09:31:06;15.30;96.50
7317;DHT22;3699;51.462;6.696;2023-05-02T09:36:03;15.50;98.70
7317;DHT22;3699;51.462;6.696;2023-05-02T09:38:29;15.30;97.50
7317;DHT22;3699;51.462;6.696;2023-05-02T09:43:23;15.40;95.00
7317;DHT22;3699;51.462;6.696;2023-05-02T09:45:58;15.60;94.80
7317;DHT22;3699;51.462;6.696;2023-05-02T09:48:25;16.10;84.70
7317;DHT22;3699;51.462;6.696;2023-05-02T09:53:23;15.20;93.10
7317;DHT22;3699;51.462;6.696;2023-05-02T09:55:58;15.00;96.90
7317;DHT22;3699;51.462;6.696;2023-05-02T09:58:25;15.00;98.10
7317;DHT22;3699;51.462;6.696;2023-05-02T10:00:52;15.10;99.90
7317;DHT22;3699;51.462;6.696;2023-05-02T10:03:19;15.10;96.50
7317;DHT22;3699;51.462;6.696;2023-05-02T10:08:18;14.70;97.90
7317;DHT22;3699;51.462;6.696;2023-05-02T10:10:49;14.80;99.50
7317;DHT22;3699;51.462;6.696;2023-05-02T10:13:19;14.60;97.60
7317;DHT22;3699;51.462;6.696;2023-05-02T10:15:48;14.70;98.70
7317;DHT22;3699;51.462;6.696;2023-05-02T10:18:20;14.70;96.00
7317;DHT22;3699;51.462;6.696;2023-05-02T10:20:57;14.40;99.20
7317;DHT22;3699;51.462;6.696;2023-05-02T10:23:28;14.80;99.90
7317;DHT22;3699;51.462;6.696;2023-05-02T10:25:57;14.80;99.90
7317;DHT22;3699;51.462;6.696;2023-05-02T10:28:24;14.70;96.40
7317;DHT22;3699;51.462;6.696;2023-05-02T10:30:52;14.70;94.80
7317;DHT22;3699;51.462;6.696;2023-05-02T10:33:20;14.30;97.20
7317;DHT22;3699;51.462;6.696;2023-05-02T10:38:15;14.10;98.80
7317;DHT22;3699;51.462;6.696;2023-05-02T10:40:49;13.80;98.50
7317;DHT22;3699;51.462;6.696;2023-05-02T10:43:22;14.00;99.90
7317;DHT22;3699;51.462;6.696;2023-05-02T10:45:51;13.50;99.90
7317;DHT22;3699;51.462;6.696;2023-05-02T10:48:19;14.10;99.70
7317;DHT22;3699;51.462;6.696;2023-05-02T10:50:48;14.50;94.10
7317;DHT22;3699;51.462;6.696;2023-05-02T10:53:23;14.70;89.90
7317;DHT22;3699;51.462;6.696;2023-05-02T10:56:14;14.90;83.60
7317;DHT22;3699;51.462;6.696;2023-05-02T10:58:43;15.10;76.70
7317;DHT22;3699;51.462;6.696;2023-05-02T11:01:32;14.60;71.50
7317;DHT22;3699;51.462;6.696;2023-05-02T11:04:02;15.20;87.70
7317;DHT22;3699;51.462;6.696;2023-05-02T11:06:29;15.60;72.70
7317;DHT22;3699;51.462;6.696;2023-05-02T11:09:32;15.60;68.50
7317;DHT22;3699;51.462;6.696;2023-05-02T11:11:59;15.80;63.20
7317;DHT22;3699;51.462;6.696;2023-05-02T11:14:46;15.80;64.60
7317;DHT22;3699;51.462;6.696;2023-05-02T11:22:52;15.40;61.90
7317;DHT22;3699;51.462;6.696;2023-05-02T11:25:29;15.50;59.30
7317;DHT22;3699;51.462;6.696;2023-05-02T11:30:40;15.50;54.70
7317;DHT22;3699;51.462;6.696;2023-05-02T11:33:12;15.90;54.20
7317;DHT22;3699;51.462;6.696;2023-05-02T11:35:42;16.30;48.20
7317;DHT22;3699;51.462;6.696;2023-05-02T11:38:10;16.40;45.00
7317;DHT22;3699;51.462;6.696;2023-05-02T11:40:37;16.40;40.70
7317;DHT22;3699;51.462;6.696;2023-05-02T11:43:12;16.40;39.80
7317;DHT22;3699;51.462;6.696;2023-05-02T11:45:40;16.40;37.80
7317;DHT22;3699;51.462;6.696;2023-05-02T11:48:10;16.40;34.90
7317;DHT22;3699;51.462;6.696;2023-05-02T11:50:44;16.60;34.50
7317;DHT22;3699;51.462;6.696;2023-05-02T11:53:11;16.60;34.50
7317;DHT22;3699;51.462;6.696;2023-05-02T11:55:47;17.10;35.60
7317;DHT22;3699;51.462;6.696;2023-05-02T11:58:15;16.80;36.30
7317;DHT22;3699;51.462;6.696;2023-05-02T12:00:44;17.00;36.60
7317;DHT22;3699;51.462;6.696;2023-05-02T12:03:21;17.00;35.50
7317;DHT22;3699;51.462;6.696;2023-05-02T12:05:48;17.30;37.40
7317;DHT22;3699;51.462;6.696;2023-05-02T12:08:23;17.30;33.30
7317;DHT22;3699;51.462;6.696;2023-05-02T12:10:51;17.10;32.00
7317;DHT22;3699;51.462;6.696;2023-05-02T12:13:20;17.30;29.40
7317;DHT22;3699;51.462;6.696;2023-05-02T12:15:50;17.40;30.90
7317;DHT22;3699;51.462;6.696;2023-05-02T12:18:18;17.90;32.20
7317;DHT22;3699;51.462;6.696;2023-05-02T12:20:48;17.70;29.80
7317;DHT22;3699;51.462;6.696;2023-05-02T12:23:15;17.50;30.30
7317;DHT22;3699;51.462;6.696;2023-05-02T12:28:09;16.90;31.40
7317;DHT22;3699;51.462;6.696;2023-05-02T12:30:37;16.40;30.00
7317;DHT22;3699;51.462;6.696;2023-05-02T12:33:06;15.90;32.90
7317;DHT22;3699;51.462;6.696;2023-05-02T12:35:34;16.30;32.80
7317;DHT22;3699;51.462;6.696;2023-05-02T12:38:12;16.50;33.30
7317;DHT22;3699;51.462;6.696;2023-05-02T12:40:49;16.80;34.20
7317;DHT22;3699;51.462;6.696;2023-05-02T12:45:43;17.60;30.30
7317;DHT22;3699;51.462;6.696;2023-05-02T12:48:21;17.80;31.60
7317;DHT22;3699;51.462;6.696;2023-05-02T12:50:49;18.40;30.90
7317;DHT22;3699;51.462;6.696;2023-05-02T12:53:15;18.10;30.50
7317;DHT22;3699;51.462;6.696;2023-05-02T12:58:11;18.10;27.00
7317;DHT22;3699;51.462;6.696;2023-05-02T13:00:40;18.50;29.10
7317;DHT22;3699;51.462;6.696;2023-05-02T13:03:08;17.50;27.60
7317;DHT22;3699;51.462;6.696;2023-05-02T13:05:37;17.90;28.60
7317;DHT22;3699;51.462;6.696;2023-05-02T13:08:04;17.20;29.40
7317;DHT22;3699;51.462;6.696;2023-05-02T13:15:26;17.00;28.60
7317;DHT22;3699;51.462;6.696;2023-05-02T13:20:20;17.60;28.90
7317;DHT22;3699;51.462;6.696;2023-05-02T13:22:48;17.50;28.30
7317;DHT22;3699;51.462;6.696;2023-05-02T13:27:41;17.80;27.00
7317;DHT22;3699;51.462;6.696;2023-05-02T13:32:36;17.60;26.60
7317;DHT22;3699;51.462;6.696;2023-05-02T13:35:05;17.30;27.90
7317;DHT22;3699;51.462;6.696;2023-05-02T13:37:31;17.60;27.70
7317;DHT22;3699;51.462;6.696;2023-05-02T13:40:00;17.40;27.20
7317;DHT22;3699;51.462;6.696;2023-05-02T13:42:26;17.40;27.10
7317;DHT22;3699;51.462;6.696;2023-05-02T13:44:53;16.90;25.50
7317;DHT22;3699;51.462;6.696;2023-05-02T13:49:47;16.50;28.00
7317;DHT22;3699;51.462;6.696;2023-05-02T13:54:41;16.50;27.90
7317;DHT22;3699;51.462;6.696;2023-05-02T13:57:09;16.50;27.80
7317;DHT22;3699;51.462;6.696;2023-05-02T13:59:36;16.70;29.20
7317;DHT22;3699;51.462;6.696;2023-05-02T14:06:57;16.50;28.90
7317;DHT22;3699;51.462;6.696;2023-05-02T14:09:24;16.90;27.40
7317;DHT22;3699;51.462;6.696;2023-05-02T14:14:19;16.80;27.20
7317;DHT22;3699;51.462;6.696;2023-05-02T14:16:45;16.60;29.00
7317;DHT22;3699;51.462;6.696;2023-05-02T14:21:39;16.70;28.00
7317;DHT22;3699;51.462;6.696;2023-05-02T14:24:06;16.10;26.50
7317;DHT22;3699;51.462;6.696;2023-05-02T14:29:00;15.90;28.60
7317;DHT22;3699;51.462;6.696;2023-05-02T14:31:28;16.70;29.80
7317;DHT22;3699;51.462;6.696;2023-05-02T14:36:22;16.20;29.70
7317;DHT22;3699;51.462;6.696;2023-05-02T14:41:16;16.40;28.70
7317;DHT22;3699;51.462;6.696;2023-05-02T14:43:42;16.30;27.70
7317;DHT22;3699;51.462;6.696;2023-05-02T14:48:38;16.60;29.10
7317;DHT22;3699;51.462;6.696;2023-05-02T14:53:32;16.30;30.20
7317;DHT22;3699;51.462;6.696;2023-05-02T14:55:58;16.20;30.00
7317;DHT22;3699;51.462;6.696;2023-05-02T14:58:25;16.20;29.40
7317;DHT22;3699;51.462;6.696;2023-05-02T15:00:52;15.90;29.50
7317;DHT22;3699;51.462;6.696;2023-05-02T15:05:47;15.90;30.50
7317;DHT22;3699;51.462;6.696;2023-05-02T15:08:14;16.00;29.50
7317;DHT22;3699;51.462;6.696;2023-05-02T15:15:35;15.60;29.80
7317;DHT22;3699;51.462;6.696;2023-05-02T15:18:02;15.70;30.60
7317;DHT22;3699;51.462;6.696;2023-05-02T15:20:29;15.70;31.20
7317;DHT22;3699;51.462;6.696;2023-05-02T15:22:57;15.20;29.90
7317;DHT22;3699;51.462;6.696;2023-05-02T15:25:27;15.60;29.90
7317;DHT22;3699;51.462;6.696;2023-05-02T15:27:55;15.70;30.10
7317;DHT22;3699;51.462;6.696;2023-05-02T15:30:21;15.30;30.50
7317;DHT22;3699;51.462;6.696;2023-05-02T15:32:48;15.30;32.60
7317;DHT22;3699;51.462;6.696;2023-05-02T15:35:15;15.30;32.50
7317;DHT22;3699;51.462;6.696;2023-05-02T15:37:41;15.30;31.20
7317;DHT22;3699;51.462;6.696;2023-05-02T15:40:10;15.40;29.90
7317;DHT22;3699;51.462;6.696;2023-05-02T15:42:38;15.60;29.90
7317;DHT22;3699;51.462;6.696;2023-05-02T15:45:06;15.40;28.90
7317;DHT22;3699;51.462;6.696;2023-05-02T15:50:02;15.30;29.70
7317;DHT22;3699;51.462;6.696;2023-05-02T15:52:29;15.70;30.70
7317;DHT22;3699;51.462;6.696;2023-05-02T15:54:55;14.90;29.70
7317;DHT22;3699;51.462;6.696;2023-05-02T15:57:24;15.20;29.10
7317;DHT22;3699;51.462;6.696;2023-05-02T15:59:51;15.70;30.00
7317;DHT22;3699;51.462;6.696;2023-05-02T16:02:18;15.40;29.90
7317;DHT22;3699;51.462;6.696;2023-05-02T16:07:13;15.00;31.40
7317;DHT22;3699;51.462;6.696;2023-05-02T16:09:39;15.00;30.40
7317;DHT22;3699;51.462;6.696;2023-05-02T16:12:07;15.10;31.00
7317;DHT22;3699;51.462;6.696;2023-05-02T16:14:35;15.10;30.10
7317;DHT22;3699;51.462;6.696;2023-05-02T16:17:01;14.90;29.90
7317;DHT22;3699;51.462;6.696;2023-05-02T16:19:28;15.40;29.40
7317;DHT22;3699;51.462;6.696;2023-05-02T16:26:49;14.80;29.70
7317;DHT22;3699;51.462;6.696;2023-05-02T16:29:16;14.70;29.40
7317;DHT22;3699;51.462;6.696;2023-05-02T16:31:44;14.80;28.80
7317;DHT22;3699;51.462;6.696;2023-05-02T16:36:38;15.00;30.30
7317;DHT22;3699;51.462;6.696;2023-05-02T16:39:05;14.80;29.10
7317;DHT22;3699;51.462;6.696;2023-05-02T16:41:33;14.80;29.50
7317;DHT22;3699;51.462;6.696;2023-05-02T16:44:00;14.80;29.10
7317;DHT22;3699;51.462;6.696;2023-05-02T16:46:27;14.80;29.60
7317;DHT22;3699;51.462;6.696;2023-05-02T16:48:55;14.60;29.70
7317;DHT22;3699;51.462;6.696;2023-05-02T16:51:22;14.70;30.40
7317;DHT22;3699;51.462;6.696;2023-05-02T16:58:43;14.50;32.70
7317;DHT22;3699;51.462;6.696;2023-05-02T17:03:38;14.50;31.30
7317;DHT22;3699;51.462;6.696;2023-05-02T17:06:06;14.50;31.50
7317;DHT22;3699;51.462;6.696;2023-05-02T17:11:00;14.20;34.00
7317;DHT22;3699;51.462;6.696;2023-05-02T17:13:27;14.40;34.90
7317;DHT22;3699;51.462;6.696;2023-05-02T17:23:19;13.90;36.40
7317;DHT22;3699;51.462;6.696;2023-05-02T17:30:41;14.00;38.40
7317;DHT22;3699;51.462;6.696;2023-05-02T17:33:07;14.00;38.70
7317;DHT22;3699;51.462;6.696;2023-05-02T17:40:30;13.60;39.50
7317;DHT22;3699;51.462;6.696;2023-05-02T17:45:26;13.50;39.30
7317;DHT22;3699;51.462;6.696;2023-05-02T17:47:53;13.30;39.70
7317;DHT22;3699;51.462;6.696;2023-05-02T17:52:47;12.70;39.10
7317;DHT22;3699;51.462;6.696;2023-05-02T17:57:42;13.20;41.10
7317;DHT22;3699;51.462;6.696;2023-05-02T18:00:10;13.10;41.70
7317;DHT22;3699;51.462;6.696;2023-05-02T18:05:04;13.50;43.20
7317;DHT22;3699;51.462;6.696;2023-05-02T18:12:28;12.80;42.40
7317;DHT22;3699;51.462;6.696;2023-05-02T18:14:57;12.80;43.40
7317;DHT22;3699;51.462;6.696;2023-05-02T18:17:24;12.40;43.90
7317;DHT22;3699;51.462;6.696;2023-05-02T18:22:18;12.60;46.10
7317;DHT22;3699;51.462;6.696;2023-05-02T18:24:46;12.40;45.60
7317;DHT22;3699;51.462;6.696;2023-05-02T18:27:12;12.50;44.50
7317;DHT22;3699;51.462;6.696;2023-05-02T18:32:08;12.30;46.60
7317;DHT22;3699;51.462;6.696;2023-05-02T18:34:34;12.50;46.90
7317;DHT22;3699;51.462;6.696;2023-05-02T18:37:01;12.00;46.30
7317;DHT22;3699;51.462;6.696;2023-05-02T18:39:29;11.70;48.60
7317;DHT22;3699;51.462;6.696;2023-05-02T18:49:20;11.80;47.20
7317;DHT22;3699;51.462;6.696;2023-05-02T18:51:47;12.00;48.10
7317;DHT22;3699;51.462;6.696;2023-05-02T18:56:41;11.80;54.40
7317;DHT22;3699;51.462;6.696;2023-05-02T18:59:08;11.60;60.40
7317;DHT22;3699;51.462;6.696;2023-05-02T19:01:36;11.10;64.50
7317;DHT22;3699;51.462;6.696;2023-05-02T19:06:31;11.40;63.10
7317;DHT22;3699;51.462;6.696;2023-05-02T19:11:25;11.20;69.50
7317;DHT22;3699;51.462;6.696;2023-05-02T19:13:52;11.70;70.60
7317;DHT22;3699;51.462;6.696;2023-05-02T19:18:50;10.90;69.40
7317;DHT22;3699;51.462;6.696;2023-05-02T19:23:48;11.10;80.90
7317;DHT22;3699;51.462;6.696;2023-05-02T19:26:17;11.40;82.60
7317;DHT22;3699;51.462;6.696;2023-05-02T19:31:13;11.00;85.00
7317;DHT22;3699;51.462;6.696;2023-05-02T19:38:41;10.90;90.90
7317;DHT22;3699;51.462;6.696;2023-05-02T19:41:09;10.90;86.70
7317;DHT22;3699;51.462;6.696;2023-05-02T19:43:36;10.70;90.10
7317;DHT22;3699;51.462;6.696;2023-05-02T19:46:03;10.70;88.90
7317;DHT22;3699;51.462;6.696;2023-05-02T19:50:59;10.70;91.20
7317;DHT22;3699;51.462;6.696;2023-05-02T19:55:55;10.70;96.50
7317;DHT22;3699;51.462;6.696;2023-05-02T19:58:23;10.60;94.50
7317;DHT22;3699;51.462;6.696;2023-05-02T20:03:18;10.70;94.00
7317;DHT22;3699;51.462;6.696;2023-05-02T20:05:45;10.60;91.90
7317;DHT22;3699;51.462;6.696;2023-05-02T20:08:12;10.60;91.70
7317;DHT22;3699;51.462;6.696;2023-05-02T20:10:39;10.50;91.50
7317;DHT22;3699;51.462;6.696;2023-05-02T20:13:06;10.50;91.00
7317;DHT22;3699;51.462;6.696;2023-05-02T20:15:34;10.60;92.10
7317;DHT22;3699;51.462;6.696;2023-05-02T20:18:01;10.50;91.30
7317;DHT22;3699;51.462;6.696;2023-05-02T20:22:55;10.60;92.50
7317;DHT22;3699;51.462;6.696;2023-05-02T20:25:23;10.60;92.10
7317;DHT22;3699;51.462;6.696;2023-05-02T20:30:18;10.20;94.40
7317;DHT22;3699;51.462;6.696;2023-05-02T20:32:46;10.40;95.70
7317;DHT22;3699;51.462;6.696;2023-05-02T20:35:12;10.50;96.70
7317;DHT22;3699;51.462;6.696;2023-05-02T20:40:08;10.80;97.30
7317;DHT22;3699;51.462;6.696;2023-05-02T20:42:35;10.20;98.90
7317;DHT22;3699;51.462;6.696;2023-05-02T20:45:04;11.30;98.20
7317;DHT22;3699;51.462;6.696;2023-05-02T20:50:00;10.10;99.10